sensor_id;sensor_type;location;lat;lon;timestamp;temperature;humidity
36434;DHT22;31691;51.972;5.672;2023-09-08T00:05:01;27.20;92.50
36434;DHT22;31691;51.972;5.672;2023-09-08T00:10:03;27.20;92.60
36434;DHT22;31691;51.972;5.672;2023-09-08T00:15:06;27.30;92.30
36434;DHT22;31691;51.972;5.672;2023-09-08T00:20:09;27.30;92.40
36434;DHT22;31691;51.972;5.672;2023-09-08T00:25:12;27.20;92.50
36434;DHT22;31691;51.972;5.672;2023-09-08T00:30:14;27.10;92.50
36434;DHT22;31691;51.972;5.672;2023-09-08T00:35:16;27.10;92.50
36434;DHT22;31691;51.972;5.672;2023-09-08T00:40:18;26.90;92.80
36434;DHT22;31691;51.972;5.672;2023-09-08T00:45:21;27.00;92.60
36434;DHT22;31691;51.972;5.672;2023-09-08T00:50:24;27.10;92.30
36434;DHT22;31691;51.972;5.672;2023-09-08T00:55:26;27.00;92.30
36434;DHT22;31691;51.972;5.672;2023-09-08T01:00:28;26.90;92.50
36434;DHT22;31691;51.972;5.672;2023-09-08T01:05:31;27.00;92.50
36434;DHT22;31691;51.972;5.672;2023-09-08T01:10:34;27.00;92.40
36434;DHT22;31691;51.972;5.672;2023-09-08T01:15:37;26.70;92.70
36434;DHT22;31691;51.972;5.672;2023-09-08T01:26:17;26.70;92.60
36434;DHT22;31691;51.972;5.672;2023-09-08T01:31:20;26.70;92.50
36434;DHT22;31691;51.972;5.672;2023-09-08T01:36:23;26.70;92.60
36434;DHT22;31691;51.972;5.672;2023-09-08T01:41:25;26.70;92.50
36434;DHT22;31691;51.972;5.672;2023-09-08T01:46:27;26.60;92.60
36434;DHT22;31691;51.972;5.672;2023-09-08T01:51:29;26.70;92.40
36434;DHT22;31691;51.972;5.672;2023-09-08T01:56:32;26.70;92.40
36434;DHT22;31691;51.972;5.672;2023-09-08T02:01:34;26.60;92.30
36434;DHT22;31691;51.972;5.672;2023-09-08T02:06:37;26.60;92.30
36434;DHT22;31691;51.972;5.672;2023-09-08T02:11:39;26.50;92.30
36434;DHT22;31691;51.972;5.672;2023-09-08T02:16:41;26.50;92.30
36434;DHT22;31691;51.972;5.672;2023-09-08T02:21:43;26.60;92.10
36434;DHT22;31691;51.972;5.672;2023-09-08T02:26:46;26.60;92.20
36434;DHT22;31691;51.972;5.672;2023-09-08T02:31:49;26.60;92.10
36434;DHT22;31691;51.972;5.672;2023-09-08T02:36:51;26.60;92.20
36434;DHT22;31691;51.972;5.672;2023-09-08T02:41:53;26.50;92.50
36434;DHT22;31691;51.972;5.672;2023-09-08T02:46:56;26.30;92.60
36434;DHT22;31691;51.972;5.672;2023-09-08T02:51:59;26.40;92.50
36434;DHT22;31691;51.972;5.672;2023-09-08T02:57:01;26.40;92.40
36434;DHT22;31691;51.972;5.672;2023-09-08T03:02:04;26.40;92.40
36434;DHT22;31691;51.972;5.672;2023-09-08T03:07:06;26.40;92.60
36434;DHT22;31691;51.972;5.672;2023-09-08T03:12:08;26.30;92.70
36434;DHT22;31691;51.972;5.672;2023-09-08T03:17:11;26.20;92.80
36434;DHT22;31691;51.972;5.672;2023-09-08T03:22:14;26.10;92.70
36434;DHT22;31691;51.972;5.672;2023-09-08T03:27:16;26.10;92.80
36434;DHT22;31691;51.972;5.672;2023-09-08T03:32:18;26.10;92.80
36434;DHT22;31691;51.972;5.672;2023-09-08T03:37:21;26.10;92.70
36434;DHT22;31691;51.972;5.672;2023-09-08T03:42:24;26.10;92.90
36434;DHT22;31691;51.972;5.672;2023-09-08T03:47:26;26.00;93.10
36434;DHT22;31691;51.972;5.672;2023-09-08T03:52:29;26.10;92.90
36434;DHT22;31691;51.972;5.672;2023-09-08T03:57:31;26.00;92.90
36434;DHT22;31691;51.972;5.672;2023-09-08T04:02:33;26.00;93.00
36434;DHT22;31691;51.972;5.672;2023-09-08T04:07:36;25.90;93.10
36434;DHT22;31691;51.972;5.672;2023-09-08T04:12:39;25.80;93.10
36434;DHT22;31691;51.972;5.672;2023-09-08T04:17:42;25.80;93.20
36434;DHT22;31691;51.972;5.672;2023-09-08T04:22:44;25.80;93.10
36434;DHT22;31691;51.972;5.672;2023-09-08T04:27:46;25.90;93.00
36434;DHT22;31691;51.972;5.672;2023-09-08T04:32:48;25.80;92.80
36434;DHT22;31691;51.972;5.672;2023-09-08T04:37:50;25.80;93.10
36434;DHT22;31691;51.972;5.672;2023-09-08T04:42:53;25.80;93.10
36434;DHT22;31691;51.972;5.672;2023-09-08T04:47:55;25.80;93.00
36434;DHT22;31691;51.972;5.672;2023-09-08T04:52:57;25.70;93.40
36434;DHT22;31691;51.972;5.672;2023-09-08T04:58:00;25.70;93.40
36434;DHT22;31691;51.972;5.672;2023-09-08T05:03:03;25.60;93.40
36434;DHT22;31691;51.972;5.672;2023-09-08T05:08:05;25.50;93.60
36434;DHT22;31691;51.972;5.672;2023-09-08T05:13:08;25.40;93.80
36434;DHT22;31691;51.972;5.672;2023-09-08T05:18:26;25.40;93.90
36434;DHT22;31691;51.972;5.672;2023-09-08T05:23:29;25.60;93.60
36434;DHT22;31691;51.972;5.672;2023-09-08T05:28:31;25.60;93.60
36434;DHT22;31691;51.972;5.672;2023-09-08T05:33:34;25.60;93.70
36434;DHT22;31691;51.972;5.672;2023-09-08T05:38:37;25.50;93.90
36434;DHT22;31691;51.972;5.672;2023-09-08T05:43:39;25.60;93.80
36434;DHT22;31691;51.972;5.672;2023-09-08T05:48:41;25.60;94.00
36434;DHT22;31691;51.972;5.672;2023-09-08T05:53:43;25.70;93.80
36434;DHT22;31691;51.972;5.672;2023-09-08T05:58:46;25.60;93.70
36434;DHT22;31691;51.972;5.672;2023-09-08T06:03:49;25.70;93.60
36434;DHT22;31691;51.972;5.672;2023-09-08T06:08:51;25.80;93.70
36434;DHT22;31691;51.972;5.672;2023-09-08T06:13:53;25.80;93.90
36434;DHT22;31691;51.972;5.672;2023-09-08T06:19:01;26.10;93.50
36434;DHT22;31691;51.972;5.672;2023-09-08T06:24:05;26.10;93.50
36434;DHT22;31691;51.972;5.672;2023-09-08T06:29:07;26.10;93.40
36434;DHT22;31691;51.972;5.672;2023-09-08T06:34:10;26.10;93.50
36434;DHT22;31691;51.972;5.672;2023-09-08T06:39:13;26.20;93.50
36434;DHT22;31691;51.972;5.672;2023-09-08T06:44:15;26.30;93.40
36434;DHT22;31691;51.972;5.672;2023-09-08T06:49:17;26.50;93.30
36434;DHT22;31691;51.972;5.672;2023-09-08T06:54:19;26.90;93.10
36434;DHT22;31691;51.972;5.672;2023-09-08T06:59:22;27.20;93.00
36434;DHT22;31691;51.972;5.672;2023-09-08T07:04:25;27.20;92.70
36434;DHT22;31691;51.972;5.672;2023-09-08T07:09:28;27.20;92.80
36434;DHT22;31691;51.972;5.672;2023-09-08T07:14:31;27.50;92.80
36434;DHT22;31691;51.972;5.672;2023-09-08T07:19:33;27.70;92.50
36434;DHT22;31691;51.972;5.672;2023-09-08T07:24:36;27.80;92.50
36434;DHT22;31691;51.972;5.672;2023-09-08T07:29:38;27.80;92.70
36434;DHT22;31691;51.972;5.672;2023-09-08T07:34:40;27.60;93.10
36434;DHT22;31691;51.972;5.672;2023-09-08T07:39:43;27.80;93.00
36434;DHT22;31691;51.972;5.672;2023-09-08T07:44:45;28.00;92.90
36434;DHT22;31691;51.972;5.672;2023-09-08T07:49:48;28.10;92.90
36434;DHT22;31691;51.972;5.672;2023-09-08T07:54:51;28.30;92.90
36434;DHT22;31691;51.972;5.672;2023-09-08T07:59:53;28.20;92.80
36434;DHT22;31691;51.972;5.672;2023-09-08T08:04:55;28.40;93.20
36434;DHT22;31691;51.972;5.672;2023-09-08T08:09:57;28.60;92.90
36434;DHT22;31691;51.972;5.672;2023-09-08T08:15:00;28.60;93.00
36434;DHT22;31691;51.972;5.672;2023-09-08T08:20:04;28.60;93.00
36434;DHT22;31691;51.972;5.672;2023-09-08T08:25:09;28.70;93.20
36434;DHT22;31691;51.972;5.672;2023-09-08T08:30:13;28.90;93.10
36434;DHT22;31691;51.972;5.672;2023-09-08T08:35:16;29.20;93.00
36434;DHT22;31691;51.972;5.672;2023-09-08T08:40:18;29.60;92.70
36434;DHT22;31691;51.972;5.672;2023-09-08T08:45:23;29.90;92.70
36434;DHT22;31691;51.972;5.672;2023-09-08T08:50:26;30.10;92.50
36434;DHT22;31691;51.972;5.672;2023-09-08T08:55:30;30.40;92.10
36434;DHT22;31691;51.972;5.672;2023-09-08T09:00:35;30.60;92.20
36434;DHT22;31691;51.972;5.672;2023-09-08T09:05:38;31.00;91.90
36434;DHT22;31691;51.972;5.672;2023-09-08T09:10:41;31.20;91.60
36434;DHT22;31691;51.972;5.672;2023-09-08T09:15:43;31.40;91.80
36434;DHT22;31691;51.972;5.672;2023-09-08T09:20:54;31.50;91.10
36434;DHT22;31691;51.972;5.672;2023-09-08T09:25:58;31.50;91.50
36434;DHT22;31691;51.972;5.672;2023-09-08T09:31:01;31.70;91.40
36434;DHT22;31691;51.972;5.672;2023-09-08T09:36:05;32.10;91.20
36434;DHT22;31691;51.972;5.672;2023-09-08T09:41:09;32.40;90.70
36434;DHT22;31691;51.972;5.672;2023-09-08T09:46:12;32.20;90.50
36434;DHT22;31691;51.972;5.672;2023-09-08T09:51:19;32.20;91.00
36434;DHT22;31691;51.972;5.672;2023-09-08T09:56:22;32.60;90.70
36434;DHT22;31691;51.972;5.672;2023-09-08T10:01:26;32.80;90.50
36434;DHT22;31691;51.972;5.672;2023-09-08T10:06:31;32.90;89.80
36434;DHT22;31691;51.972;5.672;2023-09-08T10:11:38;32.80;90.20
36434;DHT22;31691;51.972;5.672;2023-09-08T10:16:45;33.00;90.20
36434;DHT22;31691;51.972;5.672;2023-09-08T10:21:55;33.30;89.80
36434;DHT22;31691;51.972;5.672;2023-09-08T10:27:09;33.50;88.30
36434;DHT22;31691;51.972;5.672;2023-09-08T10:32:12;33.50;88.70
36434;DHT22;31691;51.972;5.672;2023-09-08T10:37:23;33.60;88.30
36434;DHT22;31691;51.972;5.672;2023-09-08T10:42:31;33.70;88.00
36434;DHT22;31691;51.972;5.672;2023-09-08T10:47:54;33.80;87.60
36434;DHT22;31691;51.972;5.672;2023-09-08T10:53:12;33.70;90.00
36434;DHT22;31691;51.972;5.672;2023-09-08T10:58:33;34.30;87.00
36434;DHT22;31691;51.972;5.672;2023-09-08T11:08:50;34.40;87.90
36434;DHT22;31691;51.972;5.672;2023-09-08T11:13:55;34.40;87.40
36434;DHT22;31691;51.972;5.672;2023-09-08T11:18:57;34.60;87.00
36434;DHT22;31691;51.972;5.672;2023-09-08T11:24:01;34.90;86.60
36434;DHT22;31691;51.972;5.672;2023-09-08T11:29:05;35.40;87.00
36434;DHT22;31691;51.972;5.672;2023-09-08T11:34:07;35.60;85.10
36434;DHT22;31691;51.972;5.672;2023-09-08T11:39:10;35.70;85.50
36434;DHT22;31691;51.972;5.672;2023-09-08T11:44:16;35.50;85.00
36434;DHT22;31691;51.972;5.672;2023-09-08T11:49:19;35.70;85.30
36434;DHT22;31691;51.972;5.672;2023-09-08T11:54:22;36.30;85.40
36434;DHT22;31691;51.972;5.672;2023-09-08T11:59:25;36.40;83.50
36434;DHT22;31691;51.972;5.672;2023-09-08T12:04:28;36.10;84.30
36434;DHT22;31691;51.972;5.672;2023-09-08T12:09:30;35.90;84.40
36434;DHT22;31691;51.972;5.672;2023-09-08T12:14:40;35.80;84.80
36434;DHT22;31691;51.972;5.672;2023-09-08T12:19:43;36.30;83.80
36434;DHT22;31691;51.972;5.672;2023-09-08T12:29:59;36.80;82.90
36434;DHT22;31691;51.972;5.672;2023-09-08T12:35:04;36.60;83.50
36434;DHT22;31691;51.972;5.672;2023-09-08T12:40:07;36.80;82.00
36434;DHT22;31691;51.972;5.672;2023-09-08T12:45:09;36.80;81.70
36434;DHT22;31691;51.972;5.672;2023-09-08T12:50:11;37.20;81.20
36434;DHT22;31691;51.972;5.672;2023-09-08T12:55:15;37.30;80.90
36434;DHT22;31691;51.972;5.672;2023-09-08T13:00:17;37.20;80.80
36434;DHT22;31691;51.972;5.672;2023-09-08T13:05:19;37.40;80.30
36434;DHT22;31691;51.972;5.672;2023-09-08T13:10:22;37.60;81.30
36434;DHT22;31691;51.972;5.672;2023-09-08T13:15:24;37.80;80.40
36434;DHT22;31691;51.972;5.672;2023-09-08T13:20:26;37.70;80.00
36434;DHT22;31691;51.972;5.672;2023-09-08T13:25:28;37.90;80.30
36434;DHT22;31691;51.972;5.672;2023-09-08T13:30:31;37.60;79.90
36434;DHT22;31691;51.972;5.672;2023-09-08T13:35:34;37.70;80.10
36434;DHT22;31691;51.972;5.672;2023-09-08T13:40:36;37.80;80.10
36434;DHT22;31691;51.972;5.672;2023-09-08T13:45:38;37.70;79.90
36434;DHT22;31691;51.972;5.672;2023-09-08T13:50:40;37.60;80.00
36434;DHT22;31691;51.972;5.672;2023-09-08T13:55:45;37.70;80.50
36434;DHT22;31691;51.972;5.672;2023-09-08T14:00:52;37.70;80.50
36434;DHT22;31691;51.972;5.672;2023-09-08T14:06:00;37.70;80.40
36434;DHT22;31691;51.972;5.672;2023-09-08T14:11:11;38.10;79.20
36434;DHT22;31691;51.972;5.672;2023-09-08T14:16:25;37.80;80.90
36434;DHT22;31691;51.972;5.672;2023-09-08T14:21:27;37.70;80.30
36434;DHT22;31691;51.972;5.672;2023-09-08T14:26:31;37.90;80.50
36434;DHT22;31691;51.972;5.672;2023-09-08T14:31:34;37.90;79.40
36434;DHT22;31691;51.972;5.672;2023-09-08T14:36:36;38.00;79.90
36434;DHT22;31691;51.972;5.672;2023-09-08T14:41:38;37.80;79.10
36434;DHT22;31691;51.972;5.672;2023-09-08T14:46:40;38.10;78.20
36434;DHT22;31691;51.972;5.672;2023-09-08T14:51:42;38.30;79.20
36434;DHT22;31691;51.972;5.672;2023-09-08T14:56:45;38.30;78.60
36434;DHT22;31691;51.972;5.672;2023-09-08T15:01:47;38.30;77.90
36434;DHT22;31691;51.972;5.672;2023-09-08T15:06:51;38.30;77.80
36434;DHT22;31691;51.972;5.672;2023-09-08T15:11:53;38.30;77.70
36434;DHT22;31691;51.972;5.672;2023-09-08T15:16:56;37.70;78.00
36434;DHT22;31691;51.972;5.672;2023-09-08T15:21:58;37.80;79.30
36434;DHT22;31691;51.972;5.672;2023-09-08T15:27:00;38.10;78.80
36434;DHT22;31691;51.972;5.672;2023-09-08T15:32:04;38.00;79.00
36434;DHT22;31691;51.972;5.672;2023-09-08T15:37:08;38.10;76.70
36434;DHT22;31691;51.972;5.672;2023-09-08T15:42:12;38.20;76.50
36434;DHT22;31691;51.972;5.672;2023-09-08T15:47:17;38.20;76.40
36434;DHT22;31691;51.972;5.672;2023-09-08T15:52:19;38.30;76.40
36434;DHT22;31691;51.972;5.672;2023-09-08T15:57:21;38.30;77.80
36434;DHT22;31691;51.972;5.672;2023-09-08T16:02:23;38.40;77.10
36434;DHT22;31691;51.972;5.672;2023-09-08T16:07:25;38.50;77.90
36434;DHT22;31691;51.972;5.672;2023-09-08T16:12:28;38.40;77.50
36434;DHT22;31691;51.972;5.672;2023-09-08T16:17:30;38.20;77.70
36434;DHT22;31691;51.972;5.672;2023-09-08T16:22:32;37.90;77.60
36434;DHT22;31691;51.972;5.672;2023-09-08T16:27:34;37.60;78.00
36434;DHT22;31691;51.972;5.672;2023-09-08T16:32:36;37.30;78.20
36434;DHT22;31691;51.972;5.672;2023-09-08T16:37:39;37.20;78.50
36434;DHT22;31691;51.972;5.672;2023-09-08T16:42:42;37.10;80.30
36434;DHT22;31691;51.972;5.672;2023-09-08T16:47:44;37.00;79.60
36434;DHT22;31691;51.972;5.672;2023-09-08T16:52:46;36.90;80.50
36434;DHT22;31691;51.972;5.672;2023-09-08T16:57:48;36.80;80.50
36434;DHT22;31691;51.972;5.672;2023-09-08T17:02:51;36.60;81.20
36434;DHT22;31691;51.972;5.672;2023-09-08T17:07:53;36.40;81.40
36434;DHT22;31691;51.972;5.672;2023-09-08T17:12:58;36.30;81.50
36434;DHT22;31691;51.972;5.672;2023-09-08T17:18:01;36.20;82.40
36434;DHT22;31691;51.972;5.672;2023-09-08T17:23:05;36.10;83.10
36434;DHT22;31691;51.972;5.672;2023-09-08T17:28:07;36.00;83.60
36434;DHT22;31691;51.972;5.672;2023-09-08T17:33:09;35.90;83.90
36434;DHT22;31691;51.972;5.672;2023-09-08T17:38:12;35.80;85.00
36434;DHT22;31691;51.972;5.672;2023-09-08T17:43:14;35.60;85.50
36434;DHT22;31691;51.972;5.672;2023-09-08T17:48:17;35.40;86.00
36434;DHT22;31691;51.972;5.672;2023-09-08T17:53:19;35.20;87.10
36434;DHT22;31691;51.972;5.672;2023-09-08T17:58:21;35.00;89.20
36434;DHT22;31691;51.972;5.672;2023-09-08T18:03:23;34.80;90.40
36434;DHT22;31691;51.972;5.672;2023-09-08T18:08:25;34.40;91.60
36434;DHT22;31691;51.972;5.672;2023-09-08T18:13:28;34.30;91.60
36434;DHT22;31691;51.972;5.672;2023-09-08T18:18:31;34.10;92.00
36434;DHT22;31691;51.972;5.672;2023-09-08T18:23:34;33.90;92.50
36434;DHT22;31691;51.972;5.672;2023-09-08T18:28:38;33.50;92.50
36434;DHT22;31691;51.972;5.672;2023-09-08T18:33:40;32.80;93.10
36434;DHT22;31691;51.972;5.672;2023-09-08T18:38:43;32.30;93.80
36434;DHT22;31691;51.972;5.672;2023-09-08T18:43:45;32.00;93.80
36434;DHT22;31691;51.972;5.672;2023-09-08T18:48:47;31.80;94.10
36434;DHT22;31691;51.972;5.672;2023-09-08T18:53:50;32.00;94.00
36434;DHT22;31691;51.972;5.672;2023-09-08T18:58:52;32.20;94.00
36434;DHT22;31691;51.972;5.672;2023-09-08T19:03:54;32.10;93.60
36434;DHT22;31691;51.972;5.672;2023-09-08T19:08:57;32.10;93.60
36434;DHT22;31691;51.972;5.672;2023-09-08T19:13:59;31.60;93.80
36434;DHT22;31691;51.972;5.672;2023-09-08T19:19:01;31.10;94.70
36434;DHT22;31691;51.972;5.672;2023-09-08T19:24:04;31.10;94.60
36434;DHT22;31691;51.972;5.672;2023-09-08T19:29:06;30.60;95.20
36434;DHT22;31691;51.972;5.672;2023-09-08T19:34:08;30.60;95.50
36434;DHT22;31691;51.972;5.672;2023-09-08T19:39:11;30.70;95.10
36434;DHT22;31691;51.972;5.672;2023-09-08T19:44:13;30.60;95.40
36434;DHT22;31691;51.972;5.672;2023-09-08T19:49:15;30.80;95.00
36434;DHT22;31691;51.972;5.672;2023-09-08T19:54:19;30.90;94.70
36434;DHT22;31691;51.972;5.672;2023-09-08T19:59:21;30.90;94.60
36434;DHT22;31691;51.972;5.672;2023-09-08T20:04:24;30.90;94.60
36434;DHT22;31691;51.972;5.672;2023-09-08T20:09:28;30.90;94.70
36434;DHT22;31691;51.972;5.672;2023-09-08T20:14:31;30.80;94.60
36434;DHT22;31691;51.972;5.672;2023-09-08T20:19:33;30.70;94.60
36434;DHT22;31691;51.972;5.672;2023-09-08T20:24:35;30.60;94.80
36434;DHT22;31691;51.972;5.672;2023-09-08T20:29:37;30.60;94.80
36434;DHT22;31691;51.972;5.672;2023-09-08T20:34:40;30.50;94.80
36434;DHT22;31691;51.972;5.672;2023-09-08T20:39:43;30.40;94.80
36434;DHT22;31691;51.972;5.672;2023-09-08T20:44:45;30.30;94.90
36434;DHT22;31691;51.972;5.672;2023-09-08T20:49:47;30.20;95.00
36434;DHT22;31691;51.972;5.672;2023-09-08T20:54:50;30.20;95.10
36434;DHT22;31691;51.972;5.672;2023-09-08T20:59:52;29.90;95.50
36434;DHT22;31691;51.972;5.672;2023-09-08T21:04:54;30.00;95.20
36434;DHT22;31691;51.972;5.672;2023-09-08T21:09:56;29.90;95.20
36434;DHT22;31691;51.972;5.672;2023-09-08T21:14:58;29.90;95.20
36434;DHT22;31691;51.972;5.672;2023-09-08T21:20:00;29.90;95.40
36434;DHT22;31691;51.972;5.672;2023-09-08T21:25:03;29.80;95.20
36434;DHT22;31691;51.972;5.672;2023-09-08T21:30:07;29.70;95.30
36434;DHT22;31691;51.972;5.672;2023-09-08T21:35:10;29.60;95.40
36434;DHT22;31691;51.972;5.672;2023-09-08T21:40:12;29.60;95.50
36434;DHT22;31691;51.972;5.672;2023-09-08T21:45:15;29.50;95.40
36434;DHT22;31691;51.972;5.672;2023-09-08T21:50:17;29.50;95.30
36434;DHT22;31691;51.972;5.672;2023-09-08T21:55:20;29.40;95.30
36434;DHT22;31691;51.972;5.672;2023-09-08T22:00:23;29.30;95.40
36434;DHT22;31691;51.972;5.672;2023-09-08T22:05:27;29.20;95.40
36434;DHT22;31691;51.972;5.672;2023-09-08T22:10:29;29.10;95.60
36434;DHT22;31691;51.972;5.672;2023-09-08T22:15:31;29.00;95.90
36434;DHT22;31691;51.972;5.672;2023-09-08T22:20:34;29.00;96.00
36434;DHT22;31691;51.972;5.672;2023-09-08T22:25:36;29.00;95.80
36434;DHT22;31691;51.972;5.672;2023-09-08T22:30:39;28.90;95.90
36434;DHT22;31691;51.972;5.672;2023-09-08T22:35:41;28.90;95.90
36434;DHT22;31691;51.972;5.672;2023-09-08T22:40:44;28.80;96.10
36434;DHT22;31691;51.972;5.672;2023-09-08T22:45:46;28.70;96.20
36434;DHT22;31691;51.972;5.672;2023-09-08T22:50:49;28.70;96.10
36434;DHT22;31691;51.972;5.672;2023-09-08T22:55:51;28.70;96.00
36434;DHT22;31691;51.972;5.672;2023-09-08T23:00:54;28.70;96.30
36434;DHT22;31691;51.972;5.672;2023-09-08T23:05:56;28.60;96.20
36434;DHT22;31691;51.972;5.672;2023-09-08T23:10:59;28.60;96.30
36434;DHT22;31691;51.972;5.672;2023-09-08T23:16:01;28.50;96.50
36434;DHT22;31691;51.972;5.672;2023-09-08T23:21:03;28.50;96.30
36434;DHT22;31691;51.972;5.672;2023-09-08T23:26:06;28.40;96.30
36434;DHT22;31691;51.972;5.672;2023-09-08T23:31:08;28.40;96.30
36434;DHT22;31691;51.972;5.672;2023-09-08T23:36:11;28.30;96.30
36434;DHT22;31691;51.972;5.672;2023-09-08T23:41:13;28.20;96.30
36434;DHT22;31691;51.972;5.672;2023-09-08T23:46:15;28.00;97.20
36434;DHT22;31691;51.972;5.672;2023-09-08T23:51:17;27.80;97.70
36434;DHT22;31691;51.972;5.672;2023-09-08T23:56:19;27.80;98.00
